sensor_id;sensor_type;location;lat;lon;timestamp;P1;durP1;ratioP1;P2;durP2;ratioP2
76459;SDS011;65299;46.084;18.762;2023-09-19T00:02:29;11.10;;;7.90;;
76459;SDS011;65299;46.084;18.762;2023-09-19T00:05:33;9.93;;;7.75;;
76459;SDS011;65299;46.084;18.762;2023-09-19T00:08:34;13.05;;;8.13;;
76459;SDS011;65299;46.084;18.762;2023-09-19T00:11:35;11.60;;;7.70;;
76459;SDS011;65299;46.084;18.762;2023-09-19T00:14:35;10.27;;;7.43;;
76459;SDS011;65299;46.084;18.762;2023-09-19T00:17:35;15.60;;;7.97;;
76459;SDS011;65299;46.084;18.762;2023-09-19T00:20:37;11.57;;;8.10;;
76459;SDS011;65299;46.084;18.762;2023-09-19T00:23:38;11.57;;;7.55;;
76459;SDS011;65299;46.084;18.762;2023-09-19T00:26:41;12.47;;;7.17;;
76459;SDS011;65299;46.084;18.762;2023-09-19T00:29:41;17.27;;;7.68;;
76459;SDS011;65299;46.084;18.762;2023-09-19T00:32:42;11.60;;;8.27;;
76459;SDS011;65299;46.084;18.762;2023-09-19T00:35:49;19.33;;;7.63;;
76459;SDS011;65299;46.084;18.762;2023-09-19T00:38:51;12.65;;;8.50;;
76459;SDS011;65299;46.084;18.762;2023-09-19T00:41:51;11.53;;;8.27;;
76459;SDS011;65299;46.084;18.762;2023-09-19T00:44:52;14.00;;;7.73;;
76459;SDS011;65299;46.084;18.762;2023-09-19T00:47:52;13.73;;;8.75;;
76459;SDS011;65299;46.084;18.762;2023-09-19T00:50:53;11.93;;;7.87;;
76459;SDS011;65299;46.084;18.762;2023-09-19T00:53:53;11.20;;;8.20;;
76459;SDS011;65299;46.084;18.762;2023-09-19T00:56:54;12.45;;;8.27;;
76459;SDS011;65299;46.084;18.762;2023-09-19T00:59:54;14.83;;;9.10;;
76459;SDS011;65299;46.084;18.762;2023-09-19T01:02:56;13.75;;;8.23;;
76459;SDS011;65299;46.084;18.762;2023-09-19T01:05:57;13.67;;;8.13;;
76459;SDS011;65299;46.084;18.762;2023-09-19T01:09:00;13.30;;;8.75;;
76459;SDS011;65299;46.084;18.762;2023-09-19T01:12:04;9.55;;;7.93;;
76459;SDS011;65299;46.084;18.762;2023-09-19T01:15:13;11.87;;;8.33;;
76459;SDS011;65299;46.084;18.762;2023-09-19T01:24:44;12.45;;;8.48;;
76459;SDS011;65299;46.084;18.762;2023-09-19T01:31:17;15.10;;;8.52;;
76459;SDS011;65299;46.084;18.762;2023-09-19T01:34:19;15.50;;;8.85;;
76459;SDS011;65299;46.084;18.762;2023-09-19T01:37:21;13.40;;;8.73;;
76459;SDS011;65299;46.084;18.762;2023-09-19T01:40:25;14.82;;;8.20;;
76459;SDS011;65299;46.084;18.762;2023-09-19T01:43:27;14.07;;;7.53;;
76459;SDS011;65299;46.084;18.762;2023-09-19T01:46:34;13.45;;;7.93;;
76459;SDS011;65299;46.084;18.762;2023-09-19T01:49:44;13.23;;;8.00;;
76459;SDS011;65299;46.084;18.762;2023-09-19T02:00:05;14.30;;;8.27;;
76459;SDS011;65299;46.084;18.762;2023-09-19T02:03:08;12.77;;;7.63;;
76459;SDS011;65299;46.084;18.762;2023-09-19T02:06:13;13.80;;;8.40;;
76459;SDS011;65299;46.084;18.762;2023-09-19T02:09:18;11.77;;;7.68;;
76459;SDS011;65299;46.084;18.762;2023-09-19T02:12:18;13.35;;;7.70;;
76459;SDS011;65299;46.084;18.762;2023-09-19T02:15:19;12.00;;;7.67;;
76459;SDS011;65299;46.084;18.762;2023-09-19T02:18:19;13.90;;;7.87;;
76459;SDS011;65299;46.084;18.762;2023-09-19T02:21:20;11.73;;;8.13;;
76459;SDS011;65299;46.084;18.762;2023-09-19T02:24:21;14.40;;;7.80;;
76459;SDS011;65299;46.084;18.762;2023-09-19T02:27:26;15.13;;;8.30;;
76459;SDS011;65299;46.084;18.762;2023-09-19T02:30:27;12.47;;;7.83;;
76459;SDS011;65299;46.084;18.762;2023-09-19T02:33:28;17.03;;;8.40;;
76459;SDS011;65299;46.084;18.762;2023-09-19T02:36:32;12.40;;;8.20;;
76459;SDS011;65299;46.084;18.762;2023-09-19T02:39:33;11.37;;;7.80;;
76459;SDS011;65299;46.084;18.762;2023-09-19T02:42:33;16.93;;;8.37;;
76459;SDS011;65299;46.084;18.762;2023-09-19T02:45:34;13.43;;;8.27;;
76459;SDS011;65299;46.084;18.762;2023-09-19T02:48:35;11.47;;;8.10;;
76459;SDS011;65299;46.084;18.762;2023-09-19T02:51:36;11.25;;;7.43;;
76459;SDS011;65299;46.084;18.762;2023-09-19T02:54:36;14.40;;;8.17;;
76459;SDS011;65299;46.084;18.762;2023-09-19T02:57:37;11.98;;;8.07;;
76459;SDS011;65299;46.084;18.762;2023-09-19T03:00:41;13.77;;;7.95;;
76459;SDS011;65299;46.084;18.762;2023-09-19T03:03:47;15.10;;;7.90;;
76459;SDS011;65299;46.084;18.762;2023-09-19T03:06:48;11.45;;;7.97;;
76459;SDS011;65299;46.084;18.762;2023-09-19T03:09:51;11.68;;;8.00;;
76459;SDS011;65299;46.084;18.762;2023-09-19T03:12:53;13.57;;;7.78;;
76459;SDS011;65299;46.084;18.762;2023-09-19T03:15:54;13.07;;;8.37;;
76459;SDS011;65299;46.084;18.762;2023-09-19T03:18:56;14.27;;;8.32;;
76459;SDS011;65299;46.084;18.762;2023-09-19T03:21:58;18.42;;;8.82;;
76459;SDS011;65299;46.084;18.762;2023-09-19T03:24:59;14.48;;;8.05;;
76459;SDS011;65299;46.084;18.762;2023-09-19T03:28:00;14.33;;;8.73;;
76459;SDS011;65299;46.084;18.762;2023-09-19T03:31:02;11.95;;;8.82;;
76459;SDS011;65299;46.084;18.762;2023-09-19T03:34:03;18.40;;;8.98;;
76459;SDS011;65299;46.084;18.762;2023-09-19T03:37:04;11.87;;;8.63;;
76459;SDS011;65299;46.084;18.762;2023-09-19T03:40:04;12.90;;;8.27;;
76459;SDS011;65299;46.084;18.762;2023-09-19T03:43:05;12.20;;;8.32;;
76459;SDS011;65299;46.084;18.762;2023-09-19T03:46:05;15.80;;;8.20;;
76459;SDS011;65299;46.084;18.762;2023-09-19T03:49:07;12.48;;;8.57;;
76459;SDS011;65299;46.084;18.762;2023-09-19T03:52:08;12.13;;;8.50;;
76459;SDS011;65299;46.084;18.762;2023-09-19T03:55:09;12.47;;;8.73;;
76459;SDS011;65299;46.084;18.762;2023-09-19T03:58:12;16.55;;;8.70;;
76459;SDS011;65299;46.084;18.762;2023-09-19T04:01:13;13.05;;;8.35;;
76459;SDS011;65299;46.084;18.762;2023-09-19T04:04:13;11.30;;;8.40;;
76459;SDS011;65299;46.084;18.762;2023-09-19T04:07:14;13.50;;;9.10;;
76459;SDS011;65299;46.084;18.762;2023-09-19T04:10:15;13.05;;;8.15;;
76459;SDS011;65299;46.084;18.762;2023-09-19T04:13:15;15.70;;;8.77;;
76459;SDS011;65299;46.084;18.762;2023-09-19T04:16:16;14.63;;;8.70;;
76459;SDS011;65299;46.084;18.762;2023-09-19T04:19:16;14.40;;;8.90;;
76459;SDS011;65299;46.084;18.762;2023-09-19T04:22:17;15.87;;;8.53;;
76459;SDS011;65299;46.084;18.762;2023-09-19T04:25:17;15.85;;;8.45;;
76459;SDS011;65299;46.084;18.762;2023-09-19T04:28:18;14.83;;;8.77;;
76459;SDS011;65299;46.084;18.762;2023-09-19T04:31:19;15.07;;;8.40;;
76459;SDS011;65299;46.084;18.762;2023-09-19T04:34:20;14.57;;;8.90;;
76459;SDS011;65299;46.084;18.762;2023-09-19T04:37:20;16.10;;;8.57;;
76459;SDS011;65299;46.084;18.762;2023-09-19T04:40:21;11.53;;;8.40;;
76459;SDS011;65299;46.084;18.762;2023-09-19T04:43:23;14.30;;;8.05;;
76459;SDS011;65299;46.084;18.762;2023-09-19T04:46:24;14.55;;;9.10;;
76459;SDS011;65299;46.084;18.762;2023-09-19T04:49:24;12.83;;;8.10;;
76459;SDS011;65299;46.084;18.762;2023-09-19T04:52:25;13.07;;;8.90;;
76459;SDS011;65299;46.084;18.762;2023-09-19T04:55:25;13.73;;;8.77;;
76459;SDS011;65299;46.084;18.762;2023-09-19T04:58:26;19.00;;;9.30;;
76459;SDS011;65299;46.084;18.762;2023-09-19T05:01:26;16.10;;;9.10;;
76459;SDS011;65299;46.084;18.762;2023-09-19T05:04:27;11.35;;;8.82;;
76459;SDS011;65299;46.084;18.762;2023-09-19T05:07:28;11.65;;;8.43;;
76459;SDS011;65299;46.084;18.762;2023-09-19T05:10:28;12.77;;;8.60;;
76459;SDS011;65299;46.084;18.762;2023-09-19T05:13:29;15.47;;;8.80;;
76459;SDS011;65299;46.084;18.762;2023-09-19T05:16:30;12.88;;;8.68;;
76459;SDS011;65299;46.084;18.762;2023-09-19T05:19:34;12.43;;;8.80;;
76459;SDS011;65299;46.084;18.762;2023-09-19T05:22:35;12.63;;;9.07;;
76459;SDS011;65299;46.084;18.762;2023-09-19T05:25:36;12.77;;;9.37;;
76459;SDS011;65299;46.084;18.762;2023-09-19T05:28:38;15.55;;;8.60;;
76459;SDS011;65299;46.084;18.762;2023-09-19T05:31:38;16.27;;;9.20;;
76459;SDS011;65299;46.084;18.762;2023-09-19T05:34:40;33.95;;;18.30;;
76459;SDS011;65299;46.084;18.762;2023-09-19T05:37:41;27.60;;;15.93;;
76459;SDS011;65299;46.084;18.762;2023-09-19T05:40:41;18.70;;;11.00;;
76459;SDS011;65299;46.084;18.762;2023-09-19T05:43:42;15.20;;;10.10;;
76459;SDS011;65299;46.084;18.762;2023-09-19T05:46:43;13.17;;;9.17;;
76459;SDS011;65299;46.084;18.762;2023-09-19T05:49:45;15.85;;;9.50;;
76459;SDS011;65299;46.084;18.762;2023-09-19T05:52:51;14.03;;;8.73;;
76459;SDS011;65299;46.084;18.762;2023-09-19T05:55:52;15.50;;;9.10;;
76459;SDS011;65299;46.084;18.762;2023-09-19T05:58:53;15.55;;;8.98;;
76459;SDS011;65299;46.084;18.762;2023-09-19T06:01:53;14.57;;;9.00;;
76459;SDS011;65299;46.084;18.762;2023-09-19T06:04:54;31.40;;;22.67;;
76459;SDS011;65299;46.084;18.762;2023-09-19T06:07:55;37.45;;;27.02;;
76459;SDS011;65299;46.084;18.762;2023-09-19T06:11:00;33.08;;;22.10;;
76459;SDS011;65299;46.084;18.762;2023-09-19T06:14:00;30.47;;;19.47;;
76459;SDS011;65299;46.084;18.762;2023-09-19T06:17:04;25.48;;;16.70;;
76459;SDS011;65299;46.084;18.762;2023-09-19T06:20:05;22.47;;;14.17;;
76459;SDS011;65299;46.084;18.762;2023-09-19T06:23:13;17.40;;;11.63;;
76459;SDS011;65299;46.084;18.762;2023-09-19T06:26:13;20.67;;;12.93;;
76459;SDS011;65299;46.084;18.762;2023-09-19T06:29:14;18.37;;;11.20;;
76459;SDS011;65299;46.084;18.762;2023-09-19T06:32:14;28.70;;;10.27;;
76459;SDS011;65299;46.084;18.762;2023-09-19T06:35:15;18.20;;;10.30;;
76459;SDS011;65299;46.084;18.762;2023-09-19T06:38:16;13.40;;;9.68;;
76459;SDS011;65299;46.084;18.762;2023-09-19T06:41:19;17.27;;;9.37;;
76459;SDS011;65299;46.084;18.762;2023-09-19T06:44:21;17.77;;;9.30;;
76459;SDS011;65299;46.084;18.762;2023-09-19T06:47:24;17.58;;;9.25;;
76459;SDS011;65299;46.084;18.762;2023-09-19T06:50:26;17.85;;;9.10;;
76459;SDS011;65299;46.084;18.762;2023-09-19T06:53:27;19.17;;;9.32;;
76459;SDS011;65299;46.084;18.762;2023-09-19T06:56:27;15.67;;;10.23;;
76459;SDS011;65299;46.084;18.762;2023-09-19T06:59:27;16.67;;;10.13;;
76459;SDS011;65299;46.084;18.762;2023-09-19T07:02:28;17.53;;;10.73;;
76459;SDS011;65299;46.084;18.762;2023-09-19T07:05:28;21.03;;;9.10;;
76459;SDS011;65299;46.084;18.762;2023-09-19T07:08:29;15.48;;;8.50;;
76459;SDS011;65299;46.084;18.762;2023-09-19T07:11:30;17.30;;;7.00;;
76459;SDS011;65299;46.084;18.762;2023-09-19T07:14:31;16.07;;;7.80;;
76459;SDS011;65299;46.084;18.762;2023-09-19T07:17:32;20.13;;;6.20;;
76459;SDS011;65299;46.084;18.762;2023-09-19T07:20:33;14.23;;;5.53;;
76459;SDS011;65299;46.084;18.762;2023-09-19T07:23:34;14.30;;;4.30;;
76459;SDS011;65299;46.084;18.762;2023-09-19T07:26:35;12.17;;;4.63;;
76459;SDS011;65299;46.084;18.762;2023-09-19T07:29:35;6.23;;;3.23;;
76459;SDS011;65299;46.084;18.762;2023-09-19T07:32:35;8.27;;;2.37;;
76459;SDS011;65299;46.084;18.762;2023-09-19T07:35:40;3.97;;;1.75;;
76459;SDS011;65299;46.084;18.762;2023-09-19T07:38:46;5.68;;;1.67;;
76459;SDS011;65299;46.084;18.762;2023-09-19T07:41:48;4.50;;;1.00;;
76459;SDS011;65299;46.084;18.762;2023-09-19T07:44:49;3.30;;;1.10;;
76459;SDS011;65299;46.084;18.762;2023-09-19T07:47:50;4.82;;;0.90;;
76459;SDS011;65299;46.084;18.762;2023-09-19T07:50:51;2.50;;;1.20;;
76459;SDS011;65299;46.084;18.762;2023-09-19T07:53:51;5.90;;;1.10;;
76459;SDS011;65299;46.084;18.762;2023-09-19T07:56:53;2.83;;;0.43;;
76459;SDS011;65299;46.084;18.762;2023-09-19T07:59:53;4.00;;;0.57;;
76459;SDS011;65299;46.084;18.762;2023-09-19T08:02:54;2.23;;;0.60;;
76459;SDS011;65299;46.084;18.762;2023-09-19T08:05:56;1.80;;;0.40;;
76459;SDS011;65299;46.084;18.762;2023-09-19T08:08:57;1.40;;;0.45;;
76459;SDS011;65299;46.084;18.762;2023-09-19T08:11:58;1.50;;;0.30;;
76459;SDS011;65299;46.084;18.762;2023-09-19T08:15:03;4.32;;;0.50;;
76459;SDS011;65299;46.084;18.762;2023-09-19T08:18:04;0.80;;;0.32;;
76459;SDS011;65299;46.084;18.762;2023-09-19T08:21:04;2.23;;;0.50;;
76459;SDS011;65299;46.084;18.762;2023-09-19T08:24:05;0.50;;;0.20;;
76459;SDS011;65299;46.084;18.762;2023-09-19T08:27:12;0.30;;;0.10;;
76459;SDS011;65299;46.084;18.762;2023-09-19T08:30:12;2.30;;;0.40;;
76459;SDS011;65299;46.084;18.762;2023-09-19T08:33:13;0.85;;;0.50;;
76459;SDS011;65299;46.084;18.762;2023-09-19T08:36:15;2.07;;;0.43;;
76459;SDS011;65299;46.084;18.762;2023-09-19T08:39:15;11.20;;;0.47;;
76459;SDS011;65299;46.084;18.762;2023-09-19T08:42:17;2.30;;;0.20;;
76459;SDS011;65299;46.084;18.762;2023-09-19T08:45:20;3.25;;;0.50;;
76459;SDS011;65299;46.084;18.762;2023-09-19T08:48:25;5.15;;;0.40;;
76459;SDS011;65299;46.084;18.762;2023-09-19T08:54:51;2.05;;;0.40;;
76459;SDS011;65299;46.084;18.762;2023-09-19T08:57:59;1.67;;;0.47;;
76459;SDS011;65299;46.084;18.762;2023-09-19T09:01:02;0.82;;;0.40;;
76459;SDS011;65299;46.084;18.762;2023-09-19T09:04:05;1.30;;;0.30;;
76459;SDS011;65299;46.084;18.762;2023-09-19T09:07:12;0.68;;;0.30;;
76459;SDS011;65299;46.084;18.762;2023-09-19T09:10:13;1.83;;;0.40;;
76459;SDS011;65299;46.084;18.762;2023-09-19T09:13:14;3.50;;;0.33;;
76459;SDS011;65299;46.084;18.762;2023-09-19T09:16:16;5.10;;;0.50;;
76459;SDS011;65299;46.084;18.762;2023-09-19T09:19:19;2.00;;;0.60;;
76459;SDS011;65299;46.084;18.762;2023-09-19T09:22:24;2.90;;;0.60;;
76459;SDS011;65299;46.084;18.762;2023-09-19T09:25:24;1.33;;;0.40;;
76459;SDS011;65299;46.084;18.762;2023-09-19T09:28:50;1.20;;;0.60;;
76459;SDS011;65299;46.084;18.762;2023-09-19T09:31:52;1.90;;;0.73;;
76459;SDS011;65299;46.084;18.762;2023-09-19T09:34:56;2.47;;;0.40;;
76459;SDS011;65299;46.084;18.762;2023-09-19T09:38:00;3.88;;;0.50;;
76459;SDS011;65299;46.084;18.762;2023-09-19T09:41:08;1.00;;;0.68;;
76459;SDS011;65299;46.084;18.762;2023-09-19T09:44:18;3.03;;;0.65;;
76459;SDS011;65299;46.084;18.762;2023-09-19T09:47:31;1.35;;;0.50;;
76459;SDS011;65299;46.084;18.762;2023-09-19T09:50:57;15.73;;;0.60;;
76459;SDS011;65299;46.084;18.762;2023-09-19T09:54:12;1.35;;;0.40;;
76459;SDS011;65299;46.084;18.762;2023-09-19T09:57:14;1.50;;;0.50;;
76459;SDS011;65299;46.084;18.762;2023-09-19T10:00:20;1.48;;;0.60;;
76459;SDS011;65299;46.084;18.762;2023-09-19T10:03:21;0.87;;;0.40;;
76459;SDS011;65299;46.084;18.762;2023-09-19T10:06:22;4.55;;;0.60;;
76459;SDS011;65299;46.084;18.762;2023-09-19T10:09:23;6.93;;;0.70;;
76459;SDS011;65299;46.084;18.762;2023-09-19T10:12:28;2.42;;;0.70;;
76459;SDS011;65299;46.084;18.762;2023-09-19T10:15:31;3.00;;;0.50;;
76459;SDS011;65299;46.084;18.762;2023-09-19T10:18:32;2.95;;;0.57;;
76459;SDS011;65299;46.084;18.762;2023-09-19T10:21:38;0.93;;;0.50;;
76459;SDS011;65299;46.084;18.762;2023-09-19T10:24:39;9.75;;;0.50;;
76459;SDS011;65299;46.084;18.762;2023-09-19T10:27:41;4.82;;;0.70;;
76459;SDS011;65299;46.084;18.762;2023-09-19T10:30:44;1.52;;;0.47;;
76459;SDS011;65299;46.084;18.762;2023-09-19T10:33:47;4.23;;;0.90;;
76459;SDS011;65299;46.084;18.762;2023-09-19T10:36:49;3.03;;;1.05;;
76459;SDS011;65299;46.084;18.762;2023-09-19T10:39:51;4.32;;;0.63;;
76459;SDS011;65299;46.084;18.762;2023-09-19T10:42:53;4.95;;;0.50;;
76459;SDS011;65299;46.084;18.762;2023-09-19T10:45:56;3.00;;;0.30;;
76459;SDS011;65299;46.084;18.762;2023-09-19T10:49:01;1.87;;;0.60;;
76459;SDS011;65299;46.084;18.762;2023-09-19T10:52:02;1.25;;;0.30;;
76459;SDS011;65299;46.084;18.762;2023-09-19T10:55:08;3.85;;;0.60;;
76459;SDS011;65299;46.084;18.762;2023-09-19T10:58:11;8.15;;;0.70;;
76459;SDS011;65299;46.084;18.762;2023-09-19T11:01:14;1.38;;;0.50;;
76459;SDS011;65299;46.084;18.762;2023-09-19T11:04:20;1.33;;;0.67;;
76459;SDS011;65299;46.084;18.762;2023-09-19T11:07:27;3.08;;;0.30;;
76459;SDS011;65299;46.084;18.762;2023-09-19T11:10:49;2.40;;;0.43;;
76459;SDS011;65299;46.084;18.762;2023-09-19T11:14:13;1.67;;;0.45;;
76459;SDS011;65299;46.084;18.762;2023-09-19T11:17:29;4.03;;;0.60;;
76459;SDS011;65299;46.084;18.762;2023-09-19T11:20:48;1.57;;;0.80;;
76459;SDS011;65299;46.084;18.762;2023-09-19T11:27:11;6.38;;;0.60;;
76459;SDS011;65299;46.084;18.762;2023-09-19T11:30:25;3.17;;;1.02;;
76459;SDS011;65299;46.084;18.762;2023-09-19T11:33:32;4.00;;;0.63;;
76459;SDS011;65299;46.084;18.762;2023-09-19T11:36:46;1.80;;;0.70;;
76459;SDS011;65299;46.084;18.762;2023-09-19T11:40:05;3.30;;;0.50;;
76459;SDS011;65299;46.084;18.762;2023-09-19T11:43:29;2.67;;;0.70;;
76459;SDS011;65299;46.084;18.762;2023-09-19T11:46:31;2.07;;;0.33;;
76459;SDS011;65299;46.084;18.762;2023-09-19T11:49:33;1.98;;;0.25;;
76459;SDS011;65299;46.084;18.762;2023-09-19T11:52:34;1.92;;;0.50;;
76459;SDS011;65299;46.084;18.762;2023-09-19T11:55:40;2.33;;;0.30;;
76459;SDS011;65299;46.084;18.762;2023-09-19T11:58:46;2.05;;;0.60;;
76459;SDS011;65299;46.084;18.762;2023-09-19T12:01:53;2.60;;;0.53;;
76459;SDS011;65299;46.084;18.762;2023-09-19T12:04:57;1.92;;;0.40;;
76459;SDS011;65299;46.084;18.762;2023-09-19T12:07:59;1.48;;;0.22;;
76459;SDS011;65299;46.084;18.762;2023-09-19T12:11:00;1.85;;;0.30;;
76459;SDS011;65299;46.084;18.762;2023-09-19T12:14:01;2.00;;;0.30;;
76459;SDS011;65299;46.084;18.762;2023-09-19T12:17:02;1.53;;;0.70;;
76459;SDS011;65299;46.084;18.762;2023-09-19T12:20:03;5.22;;;0.70;;
76459;SDS011;65299;46.084;18.762;2023-09-19T12:23:15;4.72;;;0.35;;
76459;SDS011;65299;46.084;18.762;2023-09-19T12:26:16;1.67;;;0.68;;
76459;SDS011;65299;46.084;18.762;2023-09-19T12:29:17;1.73;;;0.40;;
76459;SDS011;65299;46.084;18.762;2023-09-19T12:32:19;3.90;;;0.45;;
76459;SDS011;65299;46.084;18.762;2023-09-19T12:35:34;2.87;;;0.50;;
76459;SDS011;65299;46.084;18.762;2023-09-19T12:38:35;2.88;;;0.68;;
76459;SDS011;65299;46.084;18.762;2023-09-19T12:41:37;2.37;;;0.47;;
76459;SDS011;65299;46.084;18.762;2023-09-19T12:44:38;2.25;;;0.30;;
76459;SDS011;65299;46.084;18.762;2023-09-19T12:51:42;0.95;;;0.45;;
76459;SDS011;65299;46.084;18.762;2023-09-19T12:54:44;1.37;;;0.40;;
76459;SDS011;65299;46.084;18.762;2023-09-19T13:01:13;1.52;;;0.73;;
76459;SDS011;65299;46.084;18.762;2023-09-19T13:04:21;3.05;;;0.50;;
76459;SDS011;65299;46.084;18.762;2023-09-19T13:07:45;1.05;;;0.52;;
76459;SDS011;65299;46.084;18.762;2023-09-19T13:17:19;1.48;;;0.77;;
76459;SDS011;65299;46.084;18.762;2023-09-19T13:20:21;1.65;;;0.50;;
76459;SDS011;65299;46.084;18.762;2023-09-19T13:23:27;3.58;;;0.60;;
76459;SDS011;65299;46.084;18.762;2023-09-19T13:26:28;1.33;;;0.70;;
76459;SDS011;65299;46.084;18.762;2023-09-19T13:29:28;1.93;;;0.67;;
76459;SDS011;65299;46.084;18.762;2023-09-19T13:32:28;2.03;;;0.77;;
76459;SDS011;65299;46.084;18.762;2023-09-19T13:35:29;2.80;;;0.73;;
76459;SDS011;65299;46.084;18.762;2023-09-19T13:38:29;2.47;;;0.43;;
76459;SDS011;65299;46.084;18.762;2023-09-19T13:41:30;3.47;;;0.67;;
76459;SDS011;65299;46.084;18.762;2023-09-19T13:44:31;0.63;;;0.50;;
76459;SDS011;65299;46.084;18.762;2023-09-19T13:47:32;2.67;;;1.10;;
76459;SDS011;65299;46.084;18.762;2023-09-19T13:50:34;2.28;;;0.63;;
76459;SDS011;65299;46.084;18.762;2023-09-19T13:53:36;6.13;;;0.82;;
76459;SDS011;65299;46.084;18.762;2023-09-19T13:56:36;2.90;;;0.77;;
76459;SDS011;65299;46.084;18.762;2023-09-19T13:59:37;4.67;;;0.90;;
76459;SDS011;65299;46.084;18.762;2023-09-19T14:02:37;4.72;;;0.82;;
76459;SDS011;65299;46.084;18.762;2023-09-19T14:05:39;4.33;;;0.77;;
76459;SDS011;65299;46.084;18.762;2023-09-19T14:08:39;2.65;;;0.75;;
76459;SDS011;65299;46.084;18.762;2023-09-19T14:11:40;1.87;;;0.80;;
76459;SDS011;65299;46.084;18.762;2023-09-19T14:14:42;1.33;;;0.77;;
76459;SDS011;65299;46.084;18.762;2023-09-19T14:17:42;1.83;;;0.50;;
76459;SDS011;65299;46.084;18.762;2023-09-19T14:20:44;3.70;;;0.65;;
76459;SDS011;65299;46.084;18.762;2023-09-19T14:23:45;1.80;;;0.70;;
76459;SDS011;65299;46.084;18.762;2023-09-19T14:26:46;3.80;;;0.50;;
76459;SDS011;65299;46.084;18.762;2023-09-19T14:29:46;1.73;;;0.60;;
76459;SDS011;65299;46.084;18.762;2023-09-19T14:32:47;1.37;;;0.43;;
76459;SDS011;65299;46.084;18.762;2023-09-19T14:35:47;1.85;;;0.50;;
76459;SDS011;65299;46.084;18.762;2023-09-19T14:38:47;1.93;;;0.67;;
76459;SDS011;65299;46.084;18.762;2023-09-19T14:41:53;4.47;;;0.80;;
76459;SDS011;65299;46.084;18.762;2023-09-19T14:44:54;2.23;;;0.57;;
76459;SDS011;65299;46.084;18.762;2023-09-19T14:47:55;2.47;;;0.80;;
76459;SDS011;65299;46.084;18.762;2023-09-19T14:51:01;2.05;;;1.02;;
76459;SDS011;65299;46.084;18.762;2023-09-19T14:54:02;2.20;;;1.10;;
76459;SDS011;65299;46.084;18.762;2023-09-19T14:57:03;2.55;;;1.10;;
76459;SDS011;65299;46.084;18.762;2023-09-19T15:00:04;2.23;;;0.70;;
76459;SDS011;65299;46.084;18.762;2023-09-19T15:03:05;4.38;;;1.40;;
76459;SDS011;65299;46.084;18.762;2023-09-19T15:06:07;3.93;;;1.03;;
76459;SDS011;65299;46.084;18.762;2023-09-19T15:09:19;4.13;;;1.08;;
76459;SDS011;65299;46.084;18.762;2023-09-19T15:12:19;3.20;;;1.00;;
76459;SDS011;65299;46.084;18.762;2023-09-19T15:15:20;4.35;;;1.00;;
76459;SDS011;65299;46.084;18.762;2023-09-19T15:18:20;5.80;;;1.47;;
76459;SDS011;65299;46.084;18.762;2023-09-19T15:21:21;2.17;;;1.17;;
76459;SDS011;65299;46.084;18.762;2023-09-19T15:24:21;2.73;;;1.40;;
76459;SDS011;65299;46.084;18.762;2023-09-19T15:27:22;3.15;;;1.33;;
76459;SDS011;65299;46.084;18.762;2023-09-19T15:30:22;4.10;;;1.60;;
76459;SDS011;65299;46.084;18.762;2023-09-19T15:33:23;2.07;;;1.33;;
76459;SDS011;65299;46.084;18.762;2023-09-19T15:36:23;3.58;;;1.70;;
76459;SDS011;65299;46.084;18.762;2023-09-19T15:39:24;3.37;;;1.40;;
76459;SDS011;65299;46.084;18.762;2023-09-19T15:42:24;3.33;;;1.50;;
76459;SDS011;65299;46.084;18.762;2023-09-19T15:45:24;5.63;;;1.77;;
76459;SDS011;65299;46.084;18.762;2023-09-19T15:48:25;3.60;;;1.60;;
76459;SDS011;65299;46.084;18.762;2023-09-19T15:51:26;4.70;;;2.30;;
76459;SDS011;65299;46.084;18.762;2023-09-19T15:54:27;3.60;;;1.98;;
76459;SDS011;65299;46.084;18.762;2023-09-19T15:57:27;3.57;;;2.37;;
76459;SDS011;65299;46.084;18.762;2023-09-19T16:00:28;4.30;;;2.10;;
76459;SDS011;65299;46.084;18.762;2023-09-19T16:03:29;3.80;;;2.00;;
76459;SDS011;65299;46.084;18.762;2023-09-19T16:06:30;3.00;;;1.65;;
76459;SDS011;65299;46.084;18.762;2023-09-19T16:09:31;3.03;;;1.27;;
76459;SDS011;65299;46.084;18.762;2023-09-19T16:12:31;2.47;;;1.30;;
76459;SDS011;65299;46.084;18.762;2023-09-19T16:15:31;2.23;;;1.10;;
76459;SDS011;65299;46.084;18.762;2023-09-19T16:18:32;2.50;;;1.20;;
76459;SDS011;65299;46.084;18.762;2023-09-19T16:21:33;2.72;;;1.00;;
76459;SDS011;65299;46.084;18.762;2023-09-19T16:24:35;2.93;;;1.10;;
76459;SDS011;65299;46.084;18.762;2023-09-19T16:27:35;2.45;;;0.90;;
76459;SDS011;65299;46.084;18.762;2023-09-19T16:30:36;2.00;;;1.10;;
76459;SDS011;65299;46.084;18.762;2023-09-19T16:33:39;2.45;;;0.80;;
76459;SDS011;65299;46.084;18.762;2023-09-19T16:36:41;2.77;;;0.80;;
76459;SDS011;65299;46.084;18.762;2023-09-19T16:39:41;1.85;;;0.88;;
76459;SDS011;65299;46.084;18.762;2023-09-19T16:42:43;2.50;;;0.82;;
76459;SDS011;65299;46.084;18.762;2023-09-19T16:45:56;1.40;;;0.70;;
76459;SDS011;65299;46.084;18.762;2023-09-19T16:48:57;2.33;;;1.02;;
76459;SDS011;65299;46.084;18.762;2023-09-19T16:51:57;2.03;;;0.83;;
76459;SDS011;65299;46.084;18.762;2023-09-19T16:54:58;3.43;;;1.07;;
76459;SDS011;65299;46.084;18.762;2023-09-19T16:57:58;2.73;;;0.87;;
76459;SDS011;65299;46.084;18.762;2023-09-19T17:00:59;2.15;;;1.10;;
76459;SDS011;65299;46.084;18.762;2023-09-19T17:04:00;3.40;;;1.20;;
76459;SDS011;65299;46.084;18.762;2023-09-19T17:07:02;3.95;;;0.85;;
76459;SDS011;65299;46.084;18.762;2023-09-19T17:10:03;3.55;;;0.90;;
76459;SDS011;65299;46.084;18.762;2023-09-19T17:13:05;5.05;;;1.05;;
76459;SDS011;65299;46.084;18.762;2023-09-19T17:16:07;4.43;;;1.20;;
76459;SDS011;65299;46.084;18.762;2023-09-19T17:19:09;7.80;;;1.35;;
76459;SDS011;65299;46.084;18.762;2023-09-19T17:22:10;6.03;;;1.40;;
76459;SDS011;65299;46.084;18.762;2023-09-19T17:25:10;8.07;;;1.60;;
76459;SDS011;65299;46.084;18.762;2023-09-19T17:28:13;2.75;;;1.05;;
76459;SDS011;65299;46.084;18.762;2023-09-19T17:31:14;4.47;;;1.00;;
76459;SDS011;65299;46.084;18.762;2023-09-19T17:34:17;4.35;;;0.90;;
76459;SDS011;65299;46.084;18.762;2023-09-19T17:37:18;7.87;;;1.20;;
76459;SDS011;65299;46.084;18.762;2023-09-19T17:40:18;2.20;;;1.00;;
76459;SDS011;65299;46.084;18.762;2023-09-19T17:43:19;3.43;;;1.40;;
76459;SDS011;65299;46.084;18.762;2023-09-19T17:46:19;2.73;;;1.00;;
76459;SDS011;65299;46.084;18.762;2023-09-19T17:49:20;3.90;;;1.20;;
76459;SDS011;65299;46.084;18.762;2023-09-19T17:52:21;5.27;;;1.00;;
76459;SDS011;65299;46.084;18.762;2023-09-19T17:55:21;4.22;;;1.40;;
76459;SDS011;65299;46.084;18.762;2023-09-19T17:58:22;5.73;;;1.17;;
76459;SDS011;65299;46.084;18.762;2023-09-19T18:01:23;5.35;;;1.00;;
76459;SDS011;65299;46.084;18.762;2023-09-19T18:04:26;6.20;;;1.40;;
76459;SDS011;65299;46.084;18.762;2023-09-19T18:07:26;2.60;;;1.10;;
76459;SDS011;65299;46.084;18.762;2023-09-19T18:10:26;3.80;;;1.10;;
76459;SDS011;65299;46.084;18.762;2023-09-19T18:13:29;3.67;;;1.38;;
76459;SDS011;65299;46.084;18.762;2023-09-19T18:16:29;6.97;;;1.67;;
76459;SDS011;65299;46.084;18.762;2023-09-19T18:19:32;6.60;;;1.88;;
76459;SDS011;65299;46.084;18.762;2023-09-19T18:22:33;7.47;;;2.80;;
76459;SDS011;65299;46.084;18.762;2023-09-19T18:25:34;6.43;;;2.53;;
76459;SDS011;65299;46.084;18.762;2023-09-19T18:28:35;5.73;;;2.03;;
76459;SDS011;65299;46.084;18.762;2023-09-19T18:31:39;3.95;;;1.60;;
76459;SDS011;65299;46.084;18.762;2023-09-19T18:34:39;9.33;;;1.70;;